createdAt,value
2018-11-22T00:07:02.111Z,2.95
2018-11-22T00:17:20.201Z,2.82
2018-11-22T00:27:38.121Z,2.80
2018-11-22T00:37:56.213Z,2.72
2018-11-22T00:48:14.128Z,2.78
2018-11-22T00:58:32.398Z,2.69
2018-11-22T01:08:50.652Z,3.01
2018-11-22T01:19:08.986Z,3.08
2018-11-22T01:29:27.402Z,2.93
2018-11-22T01:39:45.477Z,2.61
2018-11-22T01:50:03.192Z,2.79
2018-11-22T02:00:23.732Z,2.69
2018-11-22T02:10:41.561Z,2.63
2018-11-22T02:20:59.617Z,2.53
2018-11-22T02:31:18.318Z,2.45
2018-11-22T02:41:37.055Z,2.58
2018-11-22T02:51:55.997Z,2.68
2018-11-22T03:02:14.451Z,2.66
2018-11-22T03:12:32.608Z,2.68
2018-11-22T03:22:50.806Z,2.71
2018-11-22T03:33:08.979Z,2.47
2018-11-22T03:43:27.074Z,2.41
2018-11-22T03:53:45.202Z,2.44
2018-11-22T04:04:03.606Z,2.49
2018-11-22T04:14:22.082Z,2.47
2018-11-22T04:24:40.097Z,2.32
2018-11-22T04:34:57.988Z,2.39
2018-11-22T04:45:16.215Z,2.60
2018-11-22T04:55:34.342Z,2.38
2018-11-22T05:05:52.447Z,2.35
2018-11-22T05:16:10.528Z,2.45
2018-11-22T05:26:28.613Z,2.33
2018-11-22T05:36:46.836Z,2.45
2018-11-22T05:47:05.860Z,2.39
2018-11-22T05:57:26.031Z,2.35
2018-11-22T06:07:43.895Z,2.29
2018-11-22T06:18:02.473Z,2.38
2018-11-22T06:28:20.746Z,2.35
2018-11-22T06:38:38.819Z,2.29
2018-11-22T06:48:56.896Z,2.30
2018-11-22T06:59:14.963Z,2.37
2018-11-22T07:09:33.274Z,2.41
2018-11-22T07:19:51.311Z,2.39
2018-11-22T07:30:11.767Z,2.45
2018-11-22T07:40:31.101Z,2.49
2018-11-22T07:50:49.135Z,2.62
2018-11-22T08:01:07.512Z,2.83
2018-11-22T08:11:25.567Z,3.03
2018-11-22T08:21:43.722Z,3.01
2018-11-22T08:32:01.680Z,3.35
2018-11-22T08:42:20.159Z,3.70
2018-11-22T08:52:38.224Z,3.74
2018-11-22T09:02:56.486Z,4.02
2018-11-22T09:13:14.210Z,4.08
2018-11-22T09:23:35.493Z,4.09
2018-11-22T09:33:50.293Z,4.12
2018-11-22T09:44:09.666Z,4.44
2018-11-22T09:54:27.760Z,4.53
2018-11-22T10:04:45.630Z,4.47
2018-11-22T10:15:03.667Z,4.60
2018-11-22T10:25:21.750Z,4.70
2018-11-22T10:35:40.047Z,4.66
2018-11-22T10:45:58.112Z,4.77
2018-11-22T10:56:16.132Z,4.77
2018-11-22T11:06:51.796Z,4.96
2018-11-22T11:17:09.557Z,4.90
2018-11-22T11:27:27.835Z,5.01
2018-11-22T11:37:45.851Z,4.80
2018-11-22T11:48:03.691Z,4.67
2018-11-22T11:58:21.625Z,4.36
2018-11-22T12:08:39.764Z,4.10
2018-11-22T12:18:58.225Z,4.06
2018-11-22T12:29:16.246Z,3.95
2018-11-22T12:39:34.207Z,3.73
2018-11-22T12:49:52.321Z,3.84
2018-11-22T13:00:15.044Z,3.51
2018-11-22T13:10:32.811Z,3.64
2018-11-22T13:20:50.820Z,3.46
2018-11-22T13:31:09.108Z,3.43
2018-11-22T13:41:27.241Z,3.38
2018-11-22T13:51:45.132Z,3.36
2018-11-22T14:02:03.221Z,3.12
2018-11-22T14:12:21.487Z,3.35
2018-11-22T14:22:39.396Z,2.98
2018-11-22T14:32:57.351Z,2.92
2018-11-22T14:43:15.619Z,3.02
2018-11-22T14:53:33.651Z,2.97
2018-11-22T15:03:52.600Z,3.04
2018-11-22T15:14:10.314Z,2.80
2018-11-22T15:24:28.589Z,2.70
2018-11-22T15:34:47.218Z,2.73
2018-11-22T15:45:04.947Z,2.62
2018-11-22T15:55:23.433Z,2.68
2018-11-22T16:05:41.154Z,2.63
2018-11-22T16:15:59.212Z,2.63
2018-11-22T16:26:16.946Z,2.58
2018-11-22T16:36:35.501Z,2.55
2018-11-22T16:46:54.633Z,2.54
2018-11-22T16:57:12.668Z,2.61
2018-11-22T17:07:30.794Z,2.71
2018-11-22T17:17:48.954Z,2.65
2018-11-22T17:28:07.973Z,2.68
2018-11-22T17:38:25.935Z,2.86
2018-11-22T17:48:44.160Z,2.73
2018-11-22T17:59:02.642Z,2.76
2018-11-22T18:09:20.683Z,2.68
2018-11-22T18:19:39.154Z,2.87
2018-11-22T18:29:57.169Z,2.69
2018-11-22T18:40:17.130Z,2.66
2018-11-22T18:50:35.950Z,2.69
2018-11-22T19:00:53.654Z,2.69
2018-11-22T19:11:12.655Z,2.69
2018-11-22T19:21:30.352Z,2.69
2018-11-22T19:31:48.078Z,2.83
2018-11-22T19:42:06.453Z,2.74
2018-11-22T19:52:24.440Z,2.72
2018-11-22T20:02:43.269Z,2.84
2018-11-22T20:13:01.415Z,2.91
2018-11-22T20:23:21.918Z,2.84
2018-11-22T20:33:37.856Z,2.90
2018-11-22T20:43:55.891Z,3.08
2018-11-22T20:54:14.086Z,2.85
2018-11-22T21:04:32.443Z,2.95
2018-11-22T21:14:50.642Z,3.07
2018-11-22T21:25:11.026Z,2.88
2018-11-22T21:35:29.017Z,2.67
2018-11-22T21:45:46.766Z,2.67
2018-11-22T21:56:04.690Z,2.60
2018-11-22T22:06:23.111Z,2.61
2018-11-22T22:16:41.631Z,2.83
2018-11-22T22:26:59.855Z,2.75
2018-11-22T22:37:17.628Z,2.72
2018-11-22T22:47:36.876Z,2.73
2018-11-22T22:57:54.917Z,2.54
2018-11-22T23:08:12.849Z,2.44
2018-11-22T23:18:30.822Z,2.62
2018-11-22T23:28:49.206Z,2.49
2018-11-22T23:39:10.271Z,2.43
2018-11-22T23:49:28.643Z,2.39
2018-11-22T23:59:46.371Z,2.47
